This is the latest recevied weather packets stored in our database for station/object OE9XVI-6. If no packets are shown the sender has not sent any weather packets the latest 10 day(s).
| Time | Temp. | Humidity | Pressure | Rain* | Wind** | Luminosity | Snow |
|---|---|---|---|---|---|---|---|
| 1777658224 | 25° C | 24% | 1025.5 hPa | 0 mm | - | - | - |
| 1777657624 | 27.22° C | 19% | 1025.5 hPa | 0 mm | - | - | - |
| 1777657024 | 28.33° C | 19% | 1025.4 hPa | 0 mm | - | - | - |
| 1777656424 | 28.89° C | 18% | 1025.5 hPa | 0 mm | - | - | - |
| 1777655824 | 29.44° C | 18% | 1025.4 hPa | 0 mm | - | - | - |
| 1777655224 | 28.89° C | 21% | 1025.5 hPa | 0 mm | - | - | - |
| 1777654624 | 28.33° C | 20% | 1025.4 hPa | 0 mm | - | - | - |
| 1777654024 | 28.89° C | 21% | 1025.6 hPa | 0 mm | - | - | - |
| 1777653424 | 28.89° C | 20% | 1025.6 hPa | 0 mm | - | - | - |
| 1777652824 | 28.89° C | 21% | 1025.8 hPa | 0 mm | - | - | - |
| 1777652224 | 29.44° C | 22% | 1025.8 hPa | 0 mm | - | - | - |
| 1777651624 | 30° C | 18% | 1025.9 hPa | 0 mm | - | - | - |
| 1777651024 | 30° C | 21% | 1025.9 hPa | 0 mm | - | - | - |
| 1777650424 | 31.11° C | 19% | 1025.9 hPa | 0 mm | - | - | - |
| 1777649824 | 28.89° C | 23% | 1026 hPa | 0 mm | - | - | - |
| 1777649224 | 28.33° C | 25% | 1026 hPa | 0 mm | - | - | - |
| 1777648624 | 27.22° C | 25% | 1026.1 hPa | 0 mm | - | - | - |
| 1777648024 | 26.11° C | 26% | 1026.2 hPa | 0 mm | - | - | - |
| 1777647424 | 25.56° C | 30% | 1026.2 hPa | 0 mm | - | - | - |
| 1777646824 | 26.67° C | 26% | 1026.2 hPa | 0 mm | - | - | - |
| 1777646224 | 25° C | 27% | 1026.2 hPa | 0 mm | - | - | - |
| 1777645624 | 24.44° C | 31% | 1026.3 hPa | 0 mm | - | - | - |
| 1777645024 | 23.89° C | 35% | 1026.3 hPa | 0 mm | - | - | - |
| 1777644424 | 22.22° C | 36% | 1026.5 hPa | 0 mm | - | - | - |
| 1777643824 | 20° C | 39% | 1026.5 hPa | 0 mm | - | - | - |
* Rain latest hour (hover to see other rain measurements)
** Current wind speed in m/s (hover to see current wind gust speed)